Time,TemperatureF,DewpointF,PressureIn,WindDirection,WindDirectionDegrees,WindSpeedMPH,WindSpeedGustMPH,Humidity,HourlyPrecipIn,Conditions,Clouds,dailyrainin,SoftwareType,DateUTC
2013-04-14 00:01:00,74.0,33.0,29.64,West,269,21.0,30.0,22,0.00,,,0.00,,2013-04-14 07:01:00,
2013-04-14 00:11:00,74.0,33.0,29.64,West,269,21.0,30.0,22,0.00,,,0.00,,2013-04-14 07:11:00,
2013-04-14 00:22:00,73.0,30.0,29.65,West,264,16.0,31.0,20,0.00,,,0.00,,2013-04-14 07:22:00,
2013-04-14 00:32:00,73.0,30.0,29.65,West,271,21.0,29.0,20,0.00,,,0.00,,2013-04-14 07:32:00,
2013-04-14 00:42:00,73.0,30.0,29.65,West,271,21.0,29.0,20,0.00,,,0.00,,2013-04-14 07:42:00,
2013-04-14 00:52:00,73.0,30.0,29.63,WNW,297,19.0,30.0,20,0.00,,,0.00,,2013-04-14 07:52:00,
2013-04-14 01:01:00,73.0,28.0,29.63,West,265,20.0,29.0,19,0.00,,,0.00,,2013-04-14 08:01:00,
2013-04-14 01:11:00,73.0,28.0,29.63,West,265,20.0,29.0,19,0.00,,,0.00,,2013-04-14 08:11:00,
2013-04-14 01:22:00,73.0,30.0,29.63,WNW,298,20.0,33.0,20,0.00,,,0.00,,2013-04-14 08:22:00,
2013-04-14 01:32:00,73.0,30.0,29.63,West,270,22.0,35.0,20,0.00,,,0.00,,2013-04-14 08:32:00,
2013-04-14 01:42:00,73.0,30.0,29.63,West,270,22.0,35.0,20,0.00,,,0.00,,2013-04-14 08:42:00,
2013-04-14 01:52:00,73.0,30.0,29.62,WNW,288,18.0,29.0,20,0.00,,,0.00,,2013-04-14 08:52:00,
2013-04-14 02:02:00,73.0,28.0,29.62,NW,305,17.0,27.0,19,0.00,,,0.00,,2013-04-14 09:02:00,
2013-04-14 02:11:00,73.0,28.0,29.62,NW,305,17.0,27.0,19,0.00,,,0.00,,2013-04-14 09:11:00,
2013-04-14 02:22:00,73.0,28.0,29.62,WNW,283,19.0,27.0,19,0.00,,,0.00,,2013-04-14 09:22:00,
2013-04-14 02:32:00,73.0,28.0,29.62,WNW,294,17.0,29.0,19,0.00,,,0.00,,2013-04-14 09:32:00,
2013-04-14 02:42:00,73.0,28.0,29.62,WNW,294,17.0,29.0,19,0.00,,,0.00,,2013-04-14 09:42:00,
2013-04-14 02:53:00,73.0,27.0,29.62,West,276,14.0,23.0,18,0.00,,,0.00,,2013-04-14 09:53:00,
2013-04-14 03:02:00,73.0,28.0,29.62,West,263,16.0,26.0,19,0.00,,,0.00,,2013-04-14 10:02:00,
2013-04-14 03:12:00,73.0,28.0,29.62,West,263,16.0,26.0,19,0.00,,,0.00,,2013-04-14 10:12:00,
2013-04-14 03:22:00,73.0,27.0,29.62,West,265,8.0,21.0,18,0.00,,,0.00,,2013-04-14 10:22:00,
2013-04-14 03:32:00,73.0,27.0,29.62,SW,229,5.0,20.0,18,0.00,,,0.00,,2013-04-14 10:32:00,
2013-04-14 03:42:00,73.0,27.0,29.62,SW,229,5.0,20.0,18,0.00,,,0.00,,2013-04-14 10:42:00,
2013-04-14 03:52:00,72.0,27.0,29.62,South,186,1.0,12.0,19,0.00,,,0.00,,2013-04-14 10:52:00,
2013-04-14 04:02:00,71.0,27.0,29.62,NW,304,6.0,14.0,19,0.00,,,0.00,,2013-04-14 11:02:00,
2013-04-14 04:12:00,71.0,27.0,29.62,NW,304,6.0,14.0,19,0.00,,,0.00,,2013-04-14 11:12:00,
2013-04-14 04:22:00,72.0,27.0,29.63,NE,41,9.0,22.0,19,0.00,,,0.00,,2013-04-14 11:22:00,
2013-04-14 04:32:00,71.0,28.0,29.63,North,354,10.0,15.0,20,0.00,,,0.00,,2013-04-14 11:32:00,
2013-04-14 04:42:00,71.0,28.0,29.63,North,354,10.0,15.0,20,0.00,,,0.00,,2013-04-14 11:42:00,
2013-04-14 04:52:00,67.0,29.0,29.65,ENE,74,7.0,11.0,24,0.00,,,0.00,,2013-04-14 11:52:00,
2013-04-14 05:01:00,65.0,28.0,29.65,East,87,6.0,9.0,25,0.00,,,0.00,,2013-04-14 12:01:00,
2013-04-14 05:12:00,65.0,28.0,29.65,East,87,6.0,9.0,25,0.00,,,0.00,,2013-04-14 12:12:00,
2013-04-14 05:21:00,64.0,27.0,29.66,East,81,3.0,7.0,25,0.00,,,0.00,,2013-04-14 12:21:00,
2013-04-14 05:32:00,64.0,28.0,29.66,East,84,4.0,6.0,26,0.00,,,0.00,,2013-04-14 12:32:00,
2013-04-14 05:42:00,64.0,28.0,29.66,East,84,4.0,6.0,26,0.00,,,0.00,,2013-04-14 12:42:00,
2013-04-14 05:52:00,63.0,29.0,29.65,East,93,4.0,7.0,27,0.00,,,0.00,,2013-04-14 12:52:00,
2013-04-14 06:01:00,62.0,29.0,29.65,East,95,5.0,7.0,28,0.00,,,0.00,,2013-04-14 13:01:00,
2013-04-14 06:11:00,62.0,29.0,29.65,East,95,5.0,7.0,28,0.00,,,0.00,,2013-04-14 13:11:00,
2013-04-14 06:22:00,61.0,28.0,29.66,East,98,2.0,6.0,28,0.00,,,0.00,,2013-04-14 13:22:00,
2013-04-14 06:32:00,60.0,28.0,29.66,East,98,3.0,5.0,29,0.00,,,0.00,,2013-04-14 13:32:00,
2013-04-14 06:42:00,60.0,28.0,29.66,East,98,3.0,5.0,29,0.00,,,0.00,,2013-04-14 13:42:00,
2013-04-14 06:52:00,60.0,28.0,29.69,ESE,103,3.0,7.0,30,0.00,,,0.00,,2013-04-14 13:52:00,
2013-04-14 07:02:00,60.0,29.0,29.69,SSE,147,1.0,10.0,31,0.00,,,0.00,,2013-04-14 14:02:00,
2013-04-14 07:11:00,60.0,29.0,29.69,SSE,147,1.0,10.0,31,0.00,,,0.00,,2013-04-14 14:11:00,
2013-04-14 07:22:00,61.0,29.0,29.69,SSE,163,5.0,8.0,29,0.00,,,0.00,,2013-04-14 14:22:00,
2013-04-14 07:32:00,62.0,29.0,29.69,SSE,160,2.0,5.0,28,0.00,,,0.00,,2013-04-14 14:32:00,
2013-04-14 07:41:00,62.0,29.0,29.69,SSE,160,2.0,5.0,28,0.00,,,0.00,,2013-04-14 14:41:00,
2013-04-14 07:52:00,66.0,29.0,29.70,SSE,160,0.0,2.0,25,0.00,,,0.00,,2013-04-14 14:52:00,
2013-04-14 08:02:00,67.0,29.0,29.70,SSE,161,0.0,4.0,24,0.00,,,0.00,,2013-04-14 15:02:00,
2013-04-14 08:12:00,67.0,29.0,29.70,SSE,161,0.0,4.0,24,0.00,,,0.00,,2013-04-14 15:12:00,
2013-04-14 08:22:00,70.0,27.0,29.69,SSE,161,0.0,3.0,20,0.00,,,0.00,,2013-04-14 15:22:00,
2013-04-14 08:32:00,72.0,27.0,29.69,SSE,161,2.0,3.0,19,0.00,,,0.00,,2013-04-14 15:32:00,
2013-04-14 08:42:00,72.0,27.0,29.69,SSE,161,2.0,3.0,19,0.00,,,0.00,,2013-04-14 15:42:00,
2013-04-14 08:53:00,75.0,27.0,29.69,SE,127,1.0,4.0,17,0.00,,,0.00,,2013-04-14 15:53:00,
2013-04-14 09:03:00,75.0,27.0,29.69,North,352,3.0,5.0,17,0.00,,,0.00,,2013-04-14 16:03:00,
2013-04-14 09:12:00,75.0,27.0,29.69,North,352,3.0,5.0,17,0.00,,,0.00,,2013-04-14 16:12:00,
2013-04-14 09:22:00,75.0,29.0,29.72,WNW,297,5.0,8.0,18,0.00,,,0.00,,2013-04-14 16:22:00,
2013-04-14 09:32:00,75.0,29.0,29.72,WNW,302,3.0,6.0,18,0.00,,,0.00,,2013-04-14 16:32:00,
2013-04-14 09:42:00,75.0,29.0,29.72,WNW,302,3.0,6.0,18,0.00,,,0.00,,2013-04-14 16:42:00,
2013-04-14 09:53:00,75.0,31.0,29.72,WNW,298,3.0,5.0,20,0.00,,,0.00,,2013-04-14 16:53:00,
2013-04-14 10:01:00,75.0,30.0,29.72,WNW,297,1.0,5.0,19,0.00,,,0.00,,2013-04-14 17:01:00,
2013-04-14 10:12:00,75.0,30.0,29.72,WNW,297,1.0,5.0,19,0.00,,,0.00,,2013-04-14 17:12:00,
2013-04-14 10:22:00,76.0,29.0,29.72,SW,236,3.0,9.0,18,0.00,,,0.00,,2013-04-14 17:22:00,
2013-04-14 10:32:00,77.0,30.0,29.72,WNW,290,5.0,8.0,18,0.00,,,0.00,,2013-04-14 17:32:00,
2013-04-14 10:42:00,77.0,30.0,29.72,WNW,290,5.0,8.0,18,0.00,,,0.00,,2013-04-14 17:42:00,
2013-04-14 10:53:00,77.0,30.0,29.72,WSW,247,3.0,6.0,18,0.00,,,0.00,,2013-04-14 17:53:00,
2013-04-14 11:02:00,79.0,30.0,29.72,South,179,2.0,6.0,17,0.00,,,0.00,,2013-04-14 18:02:00,
2013-04-14 11:12:00,79.0,30.0,29.72,South,179,2.0,6.0,17,0.00,,,0.00,,2013-04-14 18:12:00,
2013-04-14 11:21:00,80.0,30.0,29.70,South,180,3.0,8.0,16,0.00,,,0.00,,2013-04-14 18:21:00,
2013-04-14 11:32:00,81.0,29.0,29.70,SW,214,1.0,10.0,15,0.00,,,0.00,,2013-04-14 18:32:00,
2013-04-14 11:42:00,81.0,29.0,29.70,SW,214,1.0,10.0,15,0.00,,,0.00,,2013-04-14 18:42:00,
2013-04-14 11:53:00,82.0,30.0,29.69,North,360,2.0,5.0,15,0.00,,,0.00,,2013-04-14 18:53:00,
2013-04-14 12:02:00,82.0,30.0,29.69,East,82,5.0,10.0,15,0.00,,,0.00,,2013-04-14 19:02:00,
2013-04-14 12:11:00,82.0,30.0,29.69,East,82,5.0,10.0,15,0.00,,,0.00,,2013-04-14 19:11:00,
2013-04-14 12:22:00,83.0,29.0,29.66,East,79,6.0,10.0,14,0.00,,,0.00,,2013-04-14 19:22:00,
2013-04-14 12:32:00,83.0,27.0,29.66,ESE,122,3.0,6.0,13,0.00,,,0.00,,2013-04-14 19:32:00,
2013-04-14 12:42:00,83.0,27.0,29.66,ESE,122,3.0,6.0,13,0.00,,,0.00,,2013-04-14 19:42:00,
2013-04-14 12:52:00,82.0,28.0,29.65,North,360,3.0,10.0,14,0.00,,,0.00,,2013-04-14 19:52:00,
2013-04-14 13:02:00,82.0,28.0,29.65,East,79,4.0,7.0,14,0.00,,,0.00,,2013-04-14 20:02:00,
2013-04-14 13:11:00,82.0,28.0,29.65,East,79,4.0,7.0,14,0.00,,,0.00,,2013-04-14 20:11:00,
2013-04-14 13:22:00,84.0,30.0,29.63,East,82,2.0,10.0,14,0.00,,,0.00,,2013-04-14 20:22:00,
2013-04-14 13:32:00,84.0,30.0,29.63,NNW,327,4.0,16.0,14,0.00,,,0.00,,2013-04-14 20:32:00,
2013-04-14 13:42:00,84.0,30.0,29.63,NNW,327,4.0,16.0,14,0.00,,,0.00,,2013-04-14 20:42:00,
2013-04-14 13:52:00,84.0,31.0,29.62,NNE,30,5.0,14.0,15,0.00,,,0.00,,2013-04-14 20:52:00,
2013-04-14 14:02:00,85.0,32.0,29.62,WNW,295,10.0,20.0,15,0.00,,,0.00,,2013-04-14 21:02:00,
2013-04-14 14:12:00,85.0,32.0,29.62,WNW,295,10.0,20.0,15,0.00,,,0.00,,2013-04-14 21:12:00,
2013-04-14 14:22:00,85.0,30.0,29.61,NW,306,13.0,25.0,14,0.00,,,0.00,,2013-04-14 21:22:00,
2013-04-14 14:32:00,86.0,33.0,29.61,West,261,16.0,26.0,15,0.00,,,0.00,,2013-04-14 21:32:00,
2013-04-14 14:42:00,86.0,33.0,29.61,West,261,16.0,26.0,15,0.00,,,0.00,,2013-04-14 21:42:00,
2013-04-14 14:53:00,84.0,31.0,29.59,WSW,256,21.0,33.0,15,0.00,,,0.00,,2013-04-14 21:53:00,
2013-04-14 15:02:00,84.0,30.0,29.59,SW,228,16.0,31.0,14,0.00,,,0.00,,2013-04-14 22:02:00,
2013-04-14 15:12:00,84.0,30.0,29.59,SW,228,16.0,31.0,14,0.00,,,0.00,,2013-04-14 22:12:00,
2013-04-14 15:22:00,84.0,28.0,29.58,West,276,16.0,35.0,13,0.00,,,0.00,,2013-04-14 22:22:00,
2013-04-14 15:32:00,83.0,29.0,29.58,WSW,257,17.0,38.0,14,0.00,,,0.00,,2013-04-14 22:32:00,
2013-04-14 15:42:00,83.0,29.0,29.58,WSW,257,17.0,38.0,14,0.00,,,0.00,,2013-04-14 22:42:00,
2013-04-14 15:52:00,82.0,28.0,29.56,West,260,28.0,40.0,14,0.00,,,0.00,,2013-04-14 22:52:00,
2013-04-14 16:02:00,82.0,28.0,29.56,West,271,24.0,40.0,14,0.00,,,0.00,,2013-04-14 23:02:00,
2013-04-14 16:12:00,82.0,28.0,29.56,West,271,24.0,40.0,14,0.00,,,0.00,,2013-04-14 23:12:00,
2013-04-14 16:22:00,82.0,28.0,29.54,WSW,243,26.0,39.0,14,0.00,,,0.00,,2013-04-14 23:22:00,
2013-04-14 16:32:00,81.0,27.0,29.54,West,278,24.0,39.0,14,0.00,,,0.00,,2013-04-14 23:32:00,
2013-04-14 16:42:00,81.0,27.0,29.54,West,278,24.0,39.0,14,0.00,,,0.00,,2013-04-14 23:42:00,
2013-04-14 16:52:00,79.0,29.0,29.54,SW,231,31.0,39.0,16,0.00,,,0.00,,2013-04-14 23:52:00,
2013-04-14 17:01:00,79.0,29.0,29.54,WSW,253,28.0,43.0,16,0.00,,,0.00,,2013-04-15 00:01:00,
2013-04-14 17:12:00,79.0,29.0,29.54,WSW,253,28.0,43.0,16,0.00,,,0.00,,2013-04-15 00:12:00,
2013-04-14 17:22:00,77.0,30.0,29.53,WSW,238,25.0,46.0,18,0.00,,,0.00,,2013-04-15 00:22:00,
2013-04-14 17:32:00,76.0,29.0,29.53,SW,219,32.0,51.0,18,0.00,,,0.00,,2013-04-15 00:32:00,
2013-04-14 17:42:00,75.0,30.0,29.52,SW,234,33.0,45.0,19,0.00,,,0.00,,2013-04-15 00:42:00,
2013-04-14 17:52:00,75.0,30.0,29.52,SW,234,33.0,45.0,19,0.00,,,0.00,,2013-04-15 00:52:00,
2013-04-14 18:02:00,75.0,30.0,29.52,SW,229,21.0,42.0,19,0.00,,,0.00,,2013-04-15 01:02:00,
2013-04-14 18:12:00,75.0,30.0,29.52,SW,229,21.0,42.0,19,0.00,,,0.00,,2013-04-15 01:12:00,
2013-04-14 18:22:00,74.0,32.0,29.52,West,266,27.0,46.0,21,0.00,,,0.00,,2013-04-15 01:22:00,
2013-04-14 18:32:00,73.0,30.0,29.52,WSW,247,29.0,43.0,20,0.00,,,0.00,,2013-04-15 01:32:00,
2013-04-14 18:42:00,73.0,30.0,29.52,WSW,247,29.0,43.0,20,0.00,,,0.00,,2013-04-15 01:42:00,
2013-04-14 18:52:00,72.0,31.0,29.53,SW,235,29.0,51.0,22,0.00,,,0.00,,2013-04-15 01:52:00,
2013-04-14 19:02:00,71.0,31.0,29.53,SW,233,28.0,45.0,23,0.00,,,0.00,,2013-04-15 02:02:00,
2013-04-14 19:11:00,71.0,31.0,29.53,SW,233,28.0,45.0,23,0.00,,,0.00,,2013-04-15 02:11:00,
2013-04-14 19:22:00,70.0,32.0,29.55,SW,222,23.0,44.0,24,0.00,,,0.00,,2013-04-15 02:22:00,
2013-04-14 19:31:00,69.0,30.0,29.55,SW,231,23.0,36.0,23,0.00,,,0.00,,2013-04-15 02:31:00,
2013-04-14 19:42:00,69.0,30.0,29.55,SW,231,23.0,36.0,23,0.00,,,0.00,,2013-04-15 02:42:00,
2013-04-14 19:52:00,69.0,32.0,29.58,West,264,22.0,38.0,25,0.00,,,0.00,,2013-04-15 02:52:00,
2013-04-14 20:02:00,68.0,30.0,29.58,WSW,240,26.0,40.0,24,0.00,,,0.00,,2013-04-15 03:02:00,
2013-04-14 20:11:00,68.0,30.0,29.58,WSW,240,26.0,40.0,24,0.00,,,0.00,,2013-04-15 03:11:00,
2013-04-14 20:21:00,68.0,30.0,29.57,WSW,257,30.0,42.0,24,0.00,,,0.00,,2013-04-15 03:21:00,
2013-04-14 20:32:00,68.0,32.0,29.57,SW,236,23.0,40.0,26,0.00,,,0.00,,2013-04-15 03:32:00,
2013-04-14 20:42:00,68.0,32.0,29.57,SW,236,23.0,40.0,26,0.00,,,0.00,,2013-04-15 03:42:00,
2013-04-14 20:54:00,67.0,31.0,29.57,SW,219,21.0,46.0,26,0.00,,,0.00,,2013-04-15 03:54:00,
2013-04-14 21:02:00,67.0,32.0,29.57,West,281,21.0,41.0,27,0.00,,,0.00,,2013-04-15 04:02:00,
2013-04-14 21:12:00,67.0,32.0,29.57,West,281,21.0,41.0,27,0.00,,,0.00,,2013-04-15 04:12:00,
2013-04-14 21:22:00,67.0,33.0,29.57,WSW,244,20.0,45.0,28,0.00,,,0.00,,2013-04-15 04:22:00,
2013-04-14 21:32:00,68.0,32.0,29.56,SW,235,30.0,49.0,26,0.00,,,0.00,,2013-04-15 04:32:00,
2013-04-14 21:42:00,68.0,32.0,29.56,SW,235,30.0,49.0,26,0.00,,,0.00,,2013-04-15 04:42:00,
2013-04-14 21:52:00,67.0,29.0,29.57,WSW,254,21.0,39.0,24,0.00,,,0.00,,2013-04-15 04:52:00,
2013-04-14 22:02:00,67.0,30.0,29.57,WSW,247,22.0,40.0,25,0.00,,,0.00,,2013-04-15 05:02:00,
2013-04-14 22:12:00,67.0,30.0,29.57,WSW,247,22.0,40.0,25,0.00,,,0.00,,2013-04-15 05:12:00,
2013-04-14 22:22:00,66.0,29.0,29.62,SSW,211,17.0,30.0,25,0.00,,,0.00,,2013-04-15 05:22:00,
2013-04-14 22:32:00,66.0,29.0,29.62,SW,214,24.0,34.0,25,0.00,,,0.00,,2013-04-15 05:32:00,
2013-04-14 22:42:00,66.0,29.0,29.62,SW,214,24.0,34.0,25,0.00,,,0.00,,2013-04-15 05:42:00,
2013-04-14 22:52:00,66.0,28.0,29.62,SSW,204,21.0,35.0,24,0.00,,,0.00,,2013-04-15 05:52:00,
2013-04-14 23:01:00,66.0,27.0,29.62,WSW,247,21.0,32.0,23,0.00,,,0.00,,2013-04-15 06:01:00,
2013-04-14 23:12:00,66.0,27.0,29.62,WSW,247,21.0,32.0,23,0.00,,,0.00,,2013-04-15 06:12:00,
2013-04-14 23:22:00,65.0,26.0,29.61,SW,232,15.0,31.0,23,0.00,,,0.00,,2013-04-15 06:22:00,
2013-04-14 23:32:00,65.0,26.0,29.61,SSW,213,20.0,32.0,23,0.00,,,0.00,,2013-04-15 06:32:00,
2013-04-14 23:42:00,65.0,26.0,29.61,SSW,213,20.0,32.0,23,0.00,,,0.00,,2013-04-15 06:42:00,
2013-04-14 23:52:00,65.0,25.0,29.62,SSW,204,21.0,30.0,22,0.00,,,0.00,,2013-04-15 06:52:00,